sensor_id;sensor_type;location;lat;lon;timestamp;P1;durP1;ratioP1;P2;durP2;ratioP2
51792;SDS011;37850;53.178;6.376;2022-12-07T00:01:05;7.65;;;1.10;;
51792;SDS011;37850;53.178;6.376;2022-12-07T00:03:36;7.43;;;1.00;;
51792;SDS011;37850;53.178;6.376;2022-12-07T00:06:03;5.07;;;0.75;;
51792;SDS011;37850;53.178;6.376;2022-12-07T00:08:30;11.50;;;1.80;;
51792;SDS011;37850;53.178;6.376;2022-12-07T00:11:07;5.45;;;1.13;;
51792;SDS011;37850;53.178;6.376;2022-12-07T00:13:35;8.80;;;1.10;;
51792;SDS011;37850;53.178;6.376;2022-12-07T00:16:11;11.13;;;1.20;;
51792;SDS011;37850;53.178;6.376;2022-12-07T00:18:39;10.38;;;1.23;;
51792;SDS011;37850;53.178;6.376;2022-12-07T00:21:23;8.43;;;1.25;;
51792;SDS011;37850;53.178;6.376;2022-12-07T00:23:51;10.15;;;1.05;;
51792;SDS011;37850;53.178;6.376;2022-12-07T00:26:22;10.75;;;1.13;;
51792;SDS011;37850;53.178;6.376;2022-12-07T00:28:50;2.57;;;0.73;;
51792;SDS011;37850;53.178;6.376;2022-12-07T00:31:22;7.30;;;1.00;;
51792;SDS011;37850;53.178;6.376;2022-12-07T00:33:50;7.85;;;1.00;;
51792;SDS011;37850;53.178;6.376;2022-12-07T00:36:17;5.93;;;1.33;;
51792;SDS011;37850;53.178;6.376;2022-12-07T00:38:44;7.15;;;0.82;;
51792;SDS011;37850;53.178;6.376;2022-12-07T00:41:14;4.78;;;0.60;;
51792;SDS011;37850;53.178;6.376;2022-12-07T00:46:08;3.17;;;0.63;;
51792;SDS011;37850;53.178;6.376;2022-12-07T00:48:35;4.38;;;0.80;;
51792;SDS011;37850;53.178;6.376;2022-12-07T00:51:01;4.28;;;0.70;;
51792;SDS011;37850;53.178;6.376;2022-12-07T00:53:27;13.68;;;1.15;;
51792;SDS011;37850;53.178;6.376;2022-12-07T00:55:54;7.03;;;0.73;;
51792;SDS011;37850;53.178;6.376;2022-12-07T00:58:21;3.05;;;0.57;;
51792;SDS011;37850;53.178;6.376;2022-12-07T01:00:48;7.63;;;1.05;;
51792;SDS011;37850;53.178;6.376;2022-12-07T01:03:14;6.70;;;0.63;;
51792;SDS011;37850;53.178;6.376;2022-12-07T01:05:48;11.65;;;1.15;;
51792;SDS011;37850;53.178;6.376;2022-12-07T01:08:18;7.30;;;0.85;;
51792;SDS011;37850;53.178;6.376;2022-12-07T01:10:44;13.65;;;1.27;;
51792;SDS011;37850;53.178;6.376;2022-12-07T01:13:10;7.82;;;0.88;;
51792;SDS011;37850;53.178;6.376;2022-12-07T01:15:42;5.70;;;0.95;;
51792;SDS011;37850;53.178;6.376;2022-12-07T01:18:09;9.70;;;0.85;;
51792;SDS011;37850;53.178;6.376;2022-12-07T01:20:36;8.90;;;0.93;;
51792;SDS011;37850;53.178;6.376;2022-12-07T01:23:02;11.85;;;1.67;;
51792;SDS011;37850;53.178;6.376;2022-12-07T01:25:31;8.27;;;1.10;;
51792;SDS011;37850;53.178;6.376;2022-12-07T01:27:57;7.15;;;1.13;;
51792;SDS011;37850;53.178;6.376;2022-12-07T01:30:22;12.07;;;1.38;;
51792;SDS011;37850;53.178;6.376;2022-12-07T01:32:48;9.18;;;1.13;;
51792;SDS011;37850;53.178;6.376;2022-12-07T01:35:14;6.45;;;1.17;;
51792;SDS011;37850;53.178;6.376;2022-12-07T01:37:40;13.25;;;1.05;;
51792;SDS011;37850;53.178;6.376;2022-12-07T01:40:06;10.05;;;1.10;;
51792;SDS011;37850;53.178;6.376;2022-12-07T01:42:33;8.40;;;1.02;;
51792;SDS011;37850;53.178;6.376;2022-12-07T01:47:47;9.30;;;1.23;;
51792;SDS011;37850;53.178;6.376;2022-12-07T01:50:21;8.57;;;1.33;;
51792;SDS011;37850;53.178;6.376;2022-12-07T01:52:51;7.80;;;1.08;;
51792;SDS011;37850;53.178;6.376;2022-12-07T01:55:20;7.20;;;0.90;;
51792;SDS011;37850;53.178;6.376;2022-12-07T01:57:47;5.22;;;0.80;;
51792;SDS011;37850;53.178;6.376;2022-12-07T02:00:15;12.75;;;1.13;;
51792;SDS011;37850;53.178;6.376;2022-12-07T02:02:43;11.32;;;1.33;;
51792;SDS011;37850;53.178;6.376;2022-12-07T02:05:18;8.90;;;1.20;;
51792;SDS011;37850;53.178;6.376;2022-12-07T02:07:44;5.30;;;1.00;;
51792;SDS011;37850;53.178;6.376;2022-12-07T02:10:13;8.52;;;1.20;;
51792;SDS011;37850;53.178;6.376;2022-12-07T02:12:51;14.00;;;1.10;;
51792;SDS011;37850;53.178;6.376;2022-12-07T02:15:21;9.85;;;1.02;;
51792;SDS011;37850;53.178;6.376;2022-12-07T02:17:55;11.53;;;1.43;;
51792;SDS011;37850;53.178;6.376;2022-12-07T02:20:39;9.15;;;1.35;;
51792;SDS011;37850;53.178;6.376;2022-12-07T02:29:22;6.18;;;1.17;;
51792;SDS011;37850;53.178;6.376;2022-12-07T02:31:51;12.25;;;1.33;;
51792;SDS011;37850;53.178;6.376;2022-12-07T02:34:20;9.90;;;1.50;;
51792;SDS011;37850;53.178;6.376;2022-12-07T02:36:54;6.78;;;1.42;;
51792;SDS011;37850;53.178;6.376;2022-12-07T02:39:38;10.85;;;1.08;;
51792;SDS011;37850;53.178;6.376;2022-12-07T02:42:19;9.73;;;0.88;;
51792;SDS011;37850;53.178;6.376;2022-12-07T02:44:55;4.88;;;0.98;;
51792;SDS011;37850;53.178;6.376;2022-12-07T02:47:21;9.45;;;0.85;;
51792;SDS011;37850;53.178;6.376;2022-12-07T02:49:49;9.05;;;0.95;;
51792;SDS011;37850;53.178;6.376;2022-12-07T02:52:16;11.07;;;0.75;;
51792;SDS011;37850;53.178;6.376;2022-12-07T02:54:42;5.63;;;0.93;;
51792;SDS011;37850;53.178;6.376;2022-12-07T03:10:33;7.65;;;0.88;;
51792;SDS011;37850;53.178;6.376;2022-12-07T03:13:23;9.45;;;1.00;;
51792;SDS011;37850;53.178;6.376;2022-12-07T03:18:59;6.78;;;1.00;;
51792;SDS011;37850;53.178;6.376;2022-12-07T03:21:44;8.40;;;0.85;;
51792;SDS011;37850;53.178;6.376;2022-12-07T03:24:19;9.32;;;0.88;;
51792;SDS011;37850;53.178;6.376;2022-12-07T03:26:52;6.15;;;0.73;;
51792;SDS011;37850;53.178;6.376;2022-12-07T03:29:31;9.88;;;0.93;;
51792;SDS011;37850;53.178;6.376;2022-12-07T03:32:05;7.97;;;0.98;;
51792;SDS011;37850;53.178;6.376;2022-12-07T03:34:46;7.05;;;1.17;;
51792;SDS011;37850;53.178;6.376;2022-12-07T03:40:15;6.38;;;1.00;;
51792;SDS011;37850;53.178;6.376;2022-12-07T03:42:47;10.50;;;1.63;;
51792;SDS011;37850;53.178;6.376;2022-12-07T03:45:14;9.05;;;1.10;;
51792;SDS011;37850;53.178;6.376;2022-12-07T03:47:56;9.88;;;1.15;;
51792;SDS011;37850;53.178;6.376;2022-12-07T03:53:59;8.07;;;1.38;;
51792;SDS011;37850;53.178;6.376;2022-12-07T03:56:30;10.40;;;1.00;;
51792;SDS011;37850;53.178;6.376;2022-12-07T03:58:57;3.53;;;0.57;;
51792;SDS011;37850;53.178;6.376;2022-12-07T04:01:24;10.27;;;0.90;;
51792;SDS011;37850;53.178;6.376;2022-12-07T04:03:49;6.32;;;0.80;;
51792;SDS011;37850;53.178;6.376;2022-12-07T04:06:15;8.00;;;1.13;;
51792;SDS011;37850;53.178;6.376;2022-12-07T04:08:41;4.60;;;0.80;;
51792;SDS011;37850;53.178;6.376;2022-12-07T04:11:07;10.95;;;1.13;;
51792;SDS011;37850;53.178;6.376;2022-12-07T04:13:32;11.45;;;1.17;;
51792;SDS011;37850;53.178;6.376;2022-12-07T04:16:18;12.20;;;1.30;;
51792;SDS011;37850;53.178;6.376;2022-12-07T04:18:44;13.52;;;1.27;;
51792;SDS011;37850;53.178;6.376;2022-12-07T04:21:10;15.38;;;1.08;;
51792;SDS011;37850;53.178;6.376;2022-12-07T04:23:35;10.13;;;1.80;;
51792;SDS011;37850;53.178;6.376;2022-12-07T04:26:01;7.00;;;0.57;;
51792;SDS011;37850;53.178;6.376;2022-12-07T04:28:27;8.90;;;0.90;;
51792;SDS011;37850;53.178;6.376;2022-12-07T04:30:52;4.78;;;1.27;;
51792;SDS011;37850;53.178;6.376;2022-12-07T04:33:18;3.45;;;0.50;;
51792;SDS011;37850;53.178;6.376;2022-12-07T04:35:44;7.57;;;0.70;;
51792;SDS011;37850;53.178;6.376;2022-12-07T04:38:09;3.95;;;0.63;;
51792;SDS011;37850;53.178;6.376;2022-12-07T04:40:35;5.65;;;0.90;;
51792;SDS011;37850;53.178;6.376;2022-12-07T04:43:01;10.55;;;1.42;;
51792;SDS011;37850;53.178;6.376;2022-12-07T04:45:27;9.23;;;1.00;;
51792;SDS011;37850;53.178;6.376;2022-12-07T04:47:52;7.25;;;0.90;;
51792;SDS011;37850;53.178;6.376;2022-12-07T04:50:18;8.40;;;0.90;;
51792;SDS011;37850;53.178;6.376;2022-12-07T04:52:44;7.35;;;0.80;;
51792;SDS011;37850;53.178;6.376;2022-12-07T04:55:09;6.15;;;0.73;;
51792;SDS011;37850;53.178;6.376;2022-12-07T04:57:35;3.70;;;1.02;;
51792;SDS011;37850;53.178;6.376;2022-12-07T05:00:01;4.45;;;0.82;;
51792;SDS011;37850;53.178;6.376;2022-12-07T05:02:28;5.28;;;0.75;;
51792;SDS011;37850;53.178;6.376;2022-12-07T05:04:54;5.30;;;1.02;;
51792;SDS011;37850;53.178;6.376;2022-12-07T05:07:20;4.60;;;0.88;;
51792;SDS011;37850;53.178;6.376;2022-12-07T05:09:45;5.68;;;0.75;;
51792;SDS011;37850;53.178;6.376;2022-12-07T05:12:11;4.43;;;0.35;;
51792;SDS011;37850;53.178;6.376;2022-12-07T05:14:37;5.18;;;0.73;;
51792;SDS011;37850;53.178;6.376;2022-12-07T05:17:02;5.13;;;0.63;;
51792;SDS011;37850;53.178;6.376;2022-12-07T05:19:29;4.57;;;0.70;;
51792;SDS011;37850;53.178;6.376;2022-12-07T05:21:55;7.63;;;0.73;;
51792;SDS011;37850;53.178;6.376;2022-12-07T05:24:20;4.15;;;0.60;;
51792;SDS011;37850;53.178;6.376;2022-12-07T05:26:46;7.65;;;1.00;;
51792;SDS011;37850;53.178;6.376;2022-12-07T05:29:13;3.55;;;0.82;;
51792;SDS011;37850;53.178;6.376;2022-12-07T05:31:40;5.47;;;0.90;;
51792;SDS011;37850;53.178;6.376;2022-12-07T05:34:06;7.32;;;0.90;;
51792;SDS011;37850;53.178;6.376;2022-12-07T05:36:32;12.15;;;1.08;;
51792;SDS011;37850;53.178;6.376;2022-12-07T05:38:58;9.20;;;1.00;;
51792;SDS011;37850;53.178;6.376;2022-12-07T05:41:27;8.45;;;0.98;;
51792;SDS011;37850;53.178;6.376;2022-12-07T05:44:11;6.43;;;1.30;;
51792;SDS011;37850;53.178;6.376;2022-12-07T05:46:37;7.32;;;1.10;;
51792;SDS011;37850;53.178;6.376;2022-12-07T05:49:03;10.75;;;1.27;;
51792;SDS011;37850;53.178;6.376;2022-12-07T05:51:28;7.22;;;0.75;;
51792;SDS011;37850;53.178;6.376;2022-12-07T05:53:54;9.38;;;1.23;;
51792;SDS011;37850;53.178;6.376;2022-12-07T05:56:20;6.15;;;0.93;;
51792;SDS011;37850;53.178;6.376;2022-12-07T05:58:46;4.00;;;0.70;;
51792;SDS011;37850;53.178;6.376;2022-12-07T06:01:30;7.13;;;1.08;;
51792;SDS011;37850;53.178;6.376;2022-12-07T06:03:56;8.30;;;0.90;;
51792;SDS011;37850;53.178;6.376;2022-12-07T06:06:21;8.70;;;0.80;;
51792;SDS011;37850;53.178;6.376;2022-12-07T06:08:47;9.15;;;0.95;;
51792;SDS011;37850;53.178;6.376;2022-12-07T06:11:13;12.32;;;1.58;;
51792;SDS011;37850;53.178;6.376;2022-12-07T06:13:57;10.80;;;1.20;;
51792;SDS011;37850;53.178;6.376;2022-12-07T06:16:25;4.30;;;0.70;;
51792;SDS011;37850;53.178;6.376;2022-12-07T06:18:51;8.23;;;1.40;;
51792;SDS011;37850;53.178;6.376;2022-12-07T06:21:17;9.32;;;1.00;;
51792;SDS011;37850;53.178;6.376;2022-12-07T06:23:43;6.53;;;0.77;;
51792;SDS011;37850;53.178;6.376;2022-12-07T06:26:08;6.40;;;0.63;;
51792;SDS011;37850;53.178;6.376;2022-12-07T06:28:34;5.10;;;0.70;;
51792;SDS011;37850;53.178;6.376;2022-12-07T06:31:00;4.78;;;0.80;;
51792;SDS011;37850;53.178;6.376;2022-12-07T06:33:27;7.88;;;1.05;;
51792;SDS011;37850;53.178;6.376;2022-12-07T06:35:54;10.48;;;0.90;;
51792;SDS011;37850;53.178;6.376;2022-12-07T06:38:20;9.38;;;0.85;;
51792;SDS011;37850;53.178;6.376;2022-12-07T06:40:46;6.43;;;0.60;;
51792;SDS011;37850;53.178;6.376;2022-12-07T06:43:13;7.88;;;1.48;;
51792;SDS011;37850;53.178;6.376;2022-12-07T06:45:38;5.85;;;0.80;;
51792;SDS011;37850;53.178;6.376;2022-12-07T06:48:05;7.47;;;1.25;;
51792;SDS011;37850;53.178;6.376;2022-12-07T06:50:31;8.00;;;1.00;;
51792;SDS011;37850;53.178;6.376;2022-12-07T06:52:57;8.52;;;1.52;;
51792;SDS011;37850;53.178;6.376;2022-12-07T06:55:26;9.57;;;1.00;;
51792;SDS011;37850;53.178;6.376;2022-12-07T06:57:52;6.90;;;1.23;;
51792;SDS011;37850;53.178;6.376;2022-12-07T07:00:17;5.28;;;0.85;;
51792;SDS011;37850;53.178;6.376;2022-12-07T07:02:43;6.28;;;1.10;;
51792;SDS011;37850;53.178;6.376;2022-12-07T07:05:09;4.78;;;0.90;;
51792;SDS011;37850;53.178;6.376;2022-12-07T07:07:35;10.20;;;1.13;;
51792;SDS011;37850;53.178;6.376;2022-12-07T07:10:00;5.68;;;1.10;;
51792;SDS011;37850;53.178;6.376;2022-12-07T07:12:26;6.20;;;1.50;;
51792;SDS011;37850;53.178;6.376;2022-12-07T07:14:52;11.77;;;1.70;;
51792;SDS011;37850;53.178;6.376;2022-12-07T07:17:18;9.63;;;1.27;;
51792;SDS011;37850;53.178;6.376;2022-12-07T07:19:43;15.65;;;1.63;;
51792;SDS011;37850;53.178;6.376;2022-12-07T07:22:09;12.40;;;1.88;;
51792;SDS011;37850;53.178;6.376;2022-12-07T07:24:35;7.30;;;1.02;;
51792;SDS011;37850;53.178;6.376;2022-12-07T07:27:00;8.63;;;1.63;;
51792;SDS011;37850;53.178;6.376;2022-12-07T07:29:26;13.77;;;1.60;;
51792;SDS011;37850;53.178;6.376;2022-12-07T07:31:52;12.30;;;1.40;;
51792;SDS011;37850;53.178;6.376;2022-12-07T07:34:20;8.23;;;1.30;;
51792;SDS011;37850;53.178;6.376;2022-12-07T07:36:46;9.90;;;1.02;;
51792;SDS011;37850;53.178;6.376;2022-12-07T07:39:11;9.13;;;1.35;;
51792;SDS011;37850;53.178;6.376;2022-12-07T07:41:37;6.03;;;1.27;;
51792;SDS011;37850;53.178;6.376;2022-12-07T07:44:03;9.52;;;1.45;;
51792;SDS011;37850;53.178;6.376;2022-12-07T07:46:29;9.10;;;1.75;;
51792;SDS011;37850;53.178;6.376;2022-12-07T07:48:55;7.07;;;1.30;;
51792;SDS011;37850;53.178;6.376;2022-12-07T07:51:21;7.40;;;1.00;;
51792;SDS011;37850;53.178;6.376;2022-12-07T07:53:46;12.50;;;1.55;;
51792;SDS011;37850;53.178;6.376;2022-12-07T07:56:12;7.78;;;1.30;;
51792;SDS011;37850;53.178;6.376;2022-12-07T07:58:38;5.85;;;1.20;;
51792;SDS011;37850;53.178;6.376;2022-12-07T08:01:05;7.30;;;1.30;;
51792;SDS011;37850;53.178;6.376;2022-12-07T08:03:31;10.30;;;1.55;;
51792;SDS011;37850;53.178;6.376;2022-12-07T08:05:57;9.45;;;1.20;;
51792;SDS011;37850;53.178;6.376;2022-12-07T08:08:23;6.25;;;1.30;;
51792;SDS011;37850;53.178;6.376;2022-12-07T08:10:48;11.07;;;1.77;;
51792;SDS011;37850;53.178;6.376;2022-12-07T08:13:16;10.45;;;1.40;;
51792;SDS011;37850;53.178;6.376;2022-12-07T08:15:42;8.18;;;1.35;;
51792;SDS011;37850;53.178;6.376;2022-12-07T08:18:10;9.60;;;2.42;;
51792;SDS011;37850;53.178;6.376;2022-12-07T08:20:37;6.63;;;1.45;;
51792;SDS011;37850;53.178;6.376;2022-12-07T08:23:03;6.72;;;1.40;;
51792;SDS011;37850;53.178;6.376;2022-12-07T08:25:31;10.90;;;1.90;;
51792;SDS011;37850;53.178;6.376;2022-12-07T08:27:58;10.68;;;1.60;;
51792;SDS011;37850;53.178;6.376;2022-12-07T08:30:28;6.90;;;2.00;;
51792;SDS011;37850;53.178;6.376;2022-12-07T08:32:54;11.25;;;1.60;;
51792;SDS011;37850;53.178;6.376;2022-12-07T08:35:20;12.52;;;1.65;;
51792;SDS011;37850;53.178;6.376;2022-12-07T08:37:47;9.75;;;1.77;;
51792;SDS011;37850;53.178;6.376;2022-12-07T08:40:13;11.32;;;1.98;;
51792;SDS011;37850;53.178;6.376;2022-12-07T08:42:44;15.35;;;1.88;;
51792;SDS011;37850;53.178;6.376;2022-12-07T08:45:14;13.63;;;1.95;;
51792;SDS011;37850;53.178;6.376;2022-12-07T08:47:42;18.38;;;2.50;;
51792;SDS011;37850;53.178;6.376;2022-12-07T08:50:12;8.10;;;2.00;;
51792;SDS011;37850;53.178;6.376;2022-12-07T08:52:38;10.07;;;1.75;;
51792;SDS011;37850;53.178;6.376;2022-12-07T08:55:06;14.13;;;2.08;;
51792;SDS011;37850;53.178;6.376;2022-12-07T08:57:33;8.95;;;1.67;;
51792;SDS011;37850;53.178;6.376;2022-12-07T09:00:00;9.60;;;1.58;;
51792;SDS011;37850;53.178;6.376;2022-12-07T09:02:26;16.30;;;1.88;;
51792;SDS011;37850;53.178;6.376;2022-12-07T09:04:52;11.73;;;1.45;;
51792;SDS011;37850;53.178;6.376;2022-12-07T09:07:17;11.13;;;1.65;;
51792;SDS011;37850;53.178;6.376;2022-12-07T09:09:43;19.83;;;1.83;;
51792;SDS011;37850;53.178;6.376;2022-12-07T09:12:09;10.45;;;1.38;;
51792;SDS011;37850;53.178;6.376;2022-12-07T09:14:35;7.35;;;1.45;;
51792;SDS011;37850;53.178;6.376;2022-12-07T09:17:05;9.15;;;1.48;;
51792;SDS011;37850;53.178;6.376;2022-12-07T09:19:34;14.35;;;1.48;;
51792;SDS011;37850;53.178;6.376;2022-12-07T09:22:00;12.93;;;1.65;;
51792;SDS011;37850;53.178;6.376;2022-12-07T09:24:26;11.55;;;1.33;;
51792;SDS011;37850;53.178;6.376;2022-12-07T09:26:52;7.53;;;1.40;;
51792;SDS011;37850;53.178;6.376;2022-12-07T09:29:18;11.55;;;1.08;;
51792;SDS011;37850;53.178;6.376;2022-12-07T09:31:44;10.73;;;1.27;;
51792;SDS011;37850;53.178;6.376;2022-12-07T09:34:10;11.00;;;1.27;;
51792;SDS011;37850;53.178;6.376;2022-12-07T09:36:36;13.57;;;2.47;;
51792;SDS011;37850;53.178;6.376;2022-12-07T09:39:02;8.43;;;1.25;;
51792;SDS011;37850;53.178;6.376;2022-12-07T09:41:29;9.73;;;1.83;;
51792;SDS011;37850;53.178;6.376;2022-12-07T09:44:04;6.78;;;1.55;;
51792;SDS011;37850;53.178;6.376;2022-12-07T09:46:34;15.30;;;2.60;;
51792;SDS011;37850;53.178;6.376;2022-12-07T09:49:03;7.63;;;1.58;;
51792;SDS011;37850;53.178;6.376;2022-12-07T09:51:30;6.75;;;1.88;;
51792;SDS011;37850;53.178;6.376;2022-12-07T09:53:57;9.65;;;1.83;;
51792;SDS011;37850;53.178;6.376;2022-12-07T09:56:28;15.07;;;2.45;;
51792;SDS011;37850;53.178;6.376;2022-12-07T09:59:02;11.82;;;2.40;;
51792;SDS011;37850;53.178;6.376;2022-12-07T10:01:32;15.88;;;3.10;;
51792;SDS011;37850;53.178;6.376;2022-12-07T10:04:08;11.75;;;2.60;;
51792;SDS011;37850;53.178;6.376;2022-12-07T10:06:46;10.63;;;2.47;;
51792;SDS011;37850;53.178;6.376;2022-12-07T10:09:14;9.98;;;2.22;;
51792;SDS011;37850;53.178;6.376;2022-12-07T10:14:36;11.93;;;1.52;;
51792;SDS011;37850;53.178;6.376;2022-12-07T10:20:12;7.13;;;1.70;;
51792;SDS011;37850;53.178;6.376;2022-12-07T10:25:41;12.55;;;1.50;;
51792;SDS011;37850;53.178;6.376;2022-12-07T10:30:34;17.38;;;1.92;;
51792;SDS011;37850;53.178;6.376;2022-12-07T10:33:35;8.50;;;1.58;;
51792;SDS011;37850;53.178;6.376;2022-12-07T10:36:47;10.23;;;1.60;;
51792;SDS011;37850;53.178;6.376;2022-12-07T10:38:52;10.23;;;1.50;;
51792;SDS011;37850;53.178;6.376;2022-12-07T10:41:35;9.82;;;1.27;;
51792;SDS011;37850;53.178;6.376;2022-12-07T10:44:20;13.32;;;1.63;;
51792;SDS011;37850;53.178;6.376;2022-12-07T10:46:53;10.97;;;1.53;;
51792;SDS011;37850;53.178;6.376;2022-12-07T10:57:27;9.05;;;0.95;;
51792;SDS011;37850;53.178;6.376;2022-12-07T11:00:18;8.48;;;1.05;;
51792;SDS011;37850;53.178;6.376;2022-12-07T11:03:08;5.82;;;0.70;;
51792;SDS011;37850;53.178;6.376;2022-12-07T11:06:26;8.57;;;0.80;;
51792;SDS011;37850;53.178;6.376;2022-12-07T11:11:51;10.98;;;1.45;;
51792;SDS011;37850;53.178;6.376;2022-12-07T11:14:51;9.02;;;1.02;;
51792;SDS011;37850;53.178;6.376;2022-12-07T11:17:31;12.20;;;1.25;;
51792;SDS011;37850;53.178;6.376;2022-12-07T11:25:59;4.40;;;0.70;;
51792;SDS011;37850;53.178;6.376;2022-12-07T11:28:37;11.32;;;1.00;;
51792;SDS011;37850;53.178;6.376;2022-12-07T11:31:17;9.30;;;1.20;;
51792;SDS011;37850;53.178;6.376;2022-12-07T11:41:27;9.43;;;0.90;;
51792;SDS011;37850;53.178;6.376;2022-12-07T11:44:06;6.13;;;1.10;;
51792;SDS011;37850;53.178;6.376;2022-12-07T11:55:56;10.57;;;1.83;;
51792;SDS011;37850;53.178;6.376;2022-12-07T12:06:38;9.50;;;1.00;;
51792;SDS011;37850;53.178;6.376;2022-12-07T12:20:26;11.55;;;1.17;;
51792;SDS011;37850;53.178;6.376;2022-12-07T12:26:13;13.23;;;1.30;;
51792;SDS011;37850;53.178;6.376;2022-12-07T12:28:35;9.25;;;1.05;;
51792;SDS011;37850;53.178;6.376;2022-12-07T12:46:57;7.47;;;1.00;;
51792;SDS011;37850;53.178;6.376;2022-12-07T12:49:44;4.88;;;0.80;;
51792;SDS011;37850;53.178;6.376;2022-12-07T12:57:35;4.32;;;1.10;;
51792;SDS011;37850;53.178;6.376;2022-12-07T13:00:14;5.22;;;0.70;;
51792;SDS011;37850;53.178;6.376;2022-12-07T13:02:50;10.45;;;1.00;;
51792;SDS011;37850;53.178;6.376;2022-12-07T13:05:21;5.95;;;1.00;;
51792;SDS011;37850;53.178;6.376;2022-12-07T13:07:51;9.45;;;0.70;;
51792;SDS011;37850;53.178;6.376;2022-12-07T13:26:20;6.20;;;0.90;;
51792;SDS011;37850;53.178;6.376;2022-12-07T13:31:36;5.32;;;0.85;;
51792;SDS011;37850;53.178;6.376;2022-12-07T13:34:05;6.88;;;0.70;;
51792;SDS011;37850;53.178;6.376;2022-12-07T13:37:02;13.35;;;1.60;;
51792;SDS011;37850;53.178;6.376;2022-12-07T13:39:35;3.67;;;0.68;;
51792;SDS011;37850;53.178;6.376;2022-12-07T13:42:27;7.78;;;0.80;;
51792;SDS011;37850;53.178;6.376;2022-12-07T13:44:58;7.57;;;0.90;;
51792;SDS011;37850;53.178;6.376;2022-12-07T13:47:34;4.72;;;0.80;;
51792;SDS011;37850;53.178;6.376;2022-12-07T13:50:27;5.90;;;1.00;;
51792;SDS011;37850;53.178;6.376;2022-12-07T13:52:58;6.72;;;0.82;;
51792;SDS011;37850;53.178;6.376;2022-12-07T13:55:25;5.45;;;0.90;;
51792;SDS011;37850;53.178;6.376;2022-12-07T13:57:53;5.60;;;0.80;;
51792;SDS011;37850;53.178;6.376;2022-12-07T14:00:21;4.53;;;0.70;;
51792;SDS011;37850;53.178;6.376;2022-12-07T14:05:24;7.35;;;0.75;;
51792;SDS011;37850;53.178;6.376;2022-12-07T14:10:32;6.55;;;0.95;;
51792;SDS011;37850;53.178;6.376;2022-12-07T14:12:58;4.32;;;0.88;;
51792;SDS011;37850;53.178;6.376;2022-12-07T14:15:29;5.93;;;0.90;;
51792;SDS011;37850;53.178;6.376;2022-12-07T14:17:57;3.70;;;0.85;;
51792;SDS011;37850;53.178;6.376;2022-12-07T14:20:33;6.43;;;0.80;;
51792;SDS011;37850;53.178;6.376;2022-12-07T14:23:03;5.00;;;0.85;;
51792;SDS011;37850;53.178;6.376;2022-12-07T14:25:48;6.38;;;1.08;;
51792;SDS011;37850;53.178;6.376;2022-12-07T14:28:33;7.60;;;1.00;;
51792;SDS011;37850;53.178;6.376;2022-12-07T14:31:01;7.45;;;1.27;;
51792;SDS011;37850;53.178;6.376;2022-12-07T14:33:27;8.88;;;1.30;;
51792;SDS011;37850;53.178;6.376;2022-12-07T14:35:56;7.07;;;1.17;;
51792;SDS011;37850;53.178;6.376;2022-12-07T14:38:23;9.23;;;1.55;;
51792;SDS011;37850;53.178;6.376;2022-12-07T14:40:51;11.43;;;1.17;;
51792;SDS011;37850;53.178;6.376;2022-12-07T14:43:19;5.65;;;0.95;;
51792;SDS011;37850;53.178;6.376;2022-12-07T14:45:45;6.00;;;0.93;;
51792;SDS011;37850;53.178;6.376;2022-12-07T14:48:12;4.38;;;0.82;;
51792;SDS011;37850;53.178;6.376;2022-12-07T14:50:40;8.48;;;1.05;;
51792;SDS011;37850;53.178;6.376;2022-12-07T14:53:10;9.20;;;1.10;;
51792;SDS011;37850;53.178;6.376;2022-12-07T14:55:39;5.18;;;0.80;;
51792;SDS011;37850;53.178;6.376;2022-12-07T14:58:05;9.80;;;1.40;;
51792;SDS011;37850;53.178;6.376;2022-12-07T15:00:31;4.25;;;1.02;;
51792;SDS011;37850;53.178;6.376;2022-12-07T15:02:57;3.83;;;0.90;;
51792;SDS011;37850;53.178;6.376;2022-12-07T15:05:22;6.57;;;1.10;;
51792;SDS011;37850;53.178;6.376;2022-12-07T15:07:48;7.50;;;1.17;;
51792;SDS011;37850;53.178;6.376;2022-12-07T15:10:25;5.20;;;1.17;;
51792;SDS011;37850;53.178;6.376;2022-12-07T15:12:55;5.63;;;1.42;;
51792;SDS011;37850;53.178;6.376;2022-12-07T15:15:41;5.20;;;1.50;;
51792;SDS011;37850;53.178;6.376;2022-12-07T15:18:07;6.95;;;1.92;;
51792;SDS011;37850;53.178;6.376;2022-12-07T15:20:33;9.73;;;2.38;;
51792;SDS011;37850;53.178;6.376;2022-12-07T15:23:01;11.93;;;2.33;;
51792;SDS011;37850;53.178;6.376;2022-12-07T15:25:27;9.60;;;2.00;;
51792;SDS011;37850;53.178;6.376;2022-12-07T15:27:53;15.73;;;2.75;;
51792;SDS011;37850;53.178;6.376;2022-12-07T15:30:18;7.60;;;2.08;;
51792;SDS011;37850;53.178;6.376;2022-12-07T15:32:48;7.95;;;1.40;;
51792;SDS011;37850;53.178;6.376;2022-12-07T15:35:14;6.70;;;1.30;;
51792;SDS011;37850;53.178;6.376;2022-12-07T15:37:40;6.35;;;1.25;;
51792;SDS011;37850;53.178;6.376;2022-12-07T15:40:06;7.30;;;1.40;;
51792;SDS011;37850;53.178;6.376;2022-12-07T15:42:33;8.27;;;1.40;;
51792;SDS011;37850;53.178;6.376;2022-12-07T15:48:41;5.47;;;1.38;;
51792;SDS011;37850;53.178;6.376;2022-12-07T15:51:07;8.93;;;1.98;;
51792;SDS011;37850;53.178;6.376;2022-12-07T15:53:34;7.05;;;1.85;;
51792;SDS011;37850;53.178;6.376;2022-12-07T15:56:00;3.30;;;1.05;;
51792;SDS011;37850;53.178;6.376;2022-12-07T15:58:30;6.38;;;1.45;;
51792;SDS011;37850;53.178;6.376;2022-12-07T16:00:56;6.55;;;1.50;;
51792;SDS011;37850;53.178;6.376;2022-12-07T16:03:22;5.38;;;1.20;;
51792;SDS011;37850;53.178;6.376;2022-12-07T16:05:48;6.13;;;2.13;;
51792;SDS011;37850;53.178;6.376;2022-12-07T16:08:14;8.45;;;1.45;;
51792;SDS011;37850;53.178;6.376;2022-12-07T16:10:40;4.75;;;1.55;;
51792;SDS011;37850;53.178;6.376;2022-12-07T16:13:10;5.60;;;1.45;;
51792;SDS011;37850;53.178;6.376;2022-12-07T16:15:39;5.90;;;1.20;;
51792;SDS011;37850;53.178;6.376;2022-12-07T16:18:05;5.30;;;1.17;;
51792;SDS011;37850;53.178;6.376;2022-12-07T16:20:31;3.42;;;1.10;;
51792;SDS011;37850;53.178;6.376;2022-12-07T16:22:58;6.65;;;1.55;;
51792;SDS011;37850;53.178;6.376;2022-12-07T16:25:24;9.18;;;1.58;;
51792;SDS011;37850;53.178;6.376;2022-12-07T16:27:53;17.20;;;3.45;;
51792;SDS011;37850;53.178;6.376;2022-12-07T16:30:18;6.85;;;1.10;;
51792;SDS011;37850;53.178;6.376;2022-12-07T16:32:44;9.00;;;1.52;;
51792;SDS011;37850;53.178;6.376;2022-12-07T16:35:20;4.03;;;1.30;;
51792;SDS011;37850;53.178;6.376;2022-12-07T16:37:46;6.47;;;1.05;;
51792;SDS011;37850;53.178;6.376;2022-12-07T16:40:14;6.97;;;1.70;;
51792;SDS011;37850;53.178;6.376;2022-12-07T16:42:43;6.53;;;1.02;;
51792;SDS011;37850;53.178;6.376;2022-12-07T16:45:09;5.18;;;0.95;;
51792;SDS011;37850;53.178;6.376;2022-12-07T16:47:39;5.28;;;0.80;;
51792;SDS011;37850;53.178;6.376;2022-12-07T16:50:05;3.50;;;0.65;;
51792;SDS011;37850;53.178;6.376;2022-12-07T16:52:33;3.90;;;0.80;;
51792;SDS011;37850;53.178;6.376;2022-12-07T16:54:59;2.50;;;0.70;;
51792;SDS011;37850;53.178;6.376;2022-12-07T16:57:24;4.93;;;0.85;;
51792;SDS011;37850;53.178;6.376;2022-12-07T16:59:51;3.67;;;0.73;;
51792;SDS011;37850;53.178;6.376;2022-12-07T17:02:17;8.15;;;1.48;;
51792;SDS011;37850;53.178;6.376;2022-12-07T17:04:43;4.85;;;1.30;;
51792;SDS011;37850;53.178;6.376;2022-12-07T17:07:09;8.38;;;1.80;;
51792;SDS011;37850;53.178;6.376;2022-12-07T17:09:36;7.72;;;1.30;;
51792;SDS011;37850;53.178;6.376;2022-12-07T17:12:02;4.85;;;1.13;;
51792;SDS011;37850;53.178;6.376;2022-12-07T17:14:28;4.50;;;1.40;;
51792;SDS011;37850;53.178;6.376;2022-12-07T17:17:13;4.53;;;1.15;;
51792;SDS011;37850;53.178;6.376;2022-12-07T17:19:39;7.72;;;2.05;;
51792;SDS011;37850;53.178;6.376;2022-12-07T17:22:05;8.93;;;2.72;;
51792;SDS011;37850;53.178;6.376;2022-12-07T17:24:31;14.68;;;2.67;;
51792;SDS011;37850;53.178;6.376;2022-12-07T17:26:57;9.07;;;1.73;;